Time;durP1;ratioP1;P1;durP2;ratioP2;P2;SDS_P1;SDS_P2;PMS_P1;PMS_P2;Temp;Humidity;BMP_temperature;BMP_pressure;BME280_temperature;BME280_humidity;BME280_pressure;Samples;Min_cycle;Max_cycle;Signal;HPM_P1;HPM_P2
2021/03/25 00:01:43;;;;;;;0.60;0.30;;;32.50;62.80;;;;;;5051689;28;20467;-81
2021/03/25 00:04:10;;;;;;;2.10;0.40;;;33.00;60.80;;;;;;5069541;28;20448;-83
2021/03/25 00:06:40;;;;;;;2.87;0.40;;;33.00;63.70;;;;;;5072035;28;20819;-82
2021/03/25 00:09:19;;;;;;;2.92;0.30;;;33.40;60.90;;;;;;5068855;28;20382;-82
2021/03/25 00:11:47;;;;;;;1.05;0.30;;;33.00;62.10;;;;;;5074919;28;20471;-81
2021/03/25 00:14:14;;;;;;;1.60;0.30;;;33.20;60.40;;;;;;5072258;28;20920;-83
2021/03/25 00:16:41;;;;;;;0.98;0.30;;;33.20;64.40;;;;;;5075210;28;20390;-83
2021/03/25 00:19:09;;;;;;;1.13;0.30;;;32.30;60.90;;;;;;5068164;28;20443;-84
2021/03/25 00:21:37;;;;;;;0.80;0.40;;;32.30;60.70;;;;;;5067635;28;20393;-84
2021/03/25 00:24:06;;;;;;;1.60;0.32;;;32.10;65.60;;;;;;5068099;28;20873;-84
2021/03/25 00:26:33;;;;;;;0.88;0.40;;;31.80;60.60;;;;;;5071797;28;20388;-81
2021/03/25 00:29:00;;;;;;;2.97;0.30;;;32.10;62.10;;;;;;5069997;28;20892;-83
2021/03/25 00:31:27;;;;;;;0.57;0.30;;;32.20;62.50;;;;;;5066553;28;20406;-82
2021/03/25 00:33:55;;;;;;;1.60;0.40;;;32.00;61.50;;;;;;5073874;28;20380;-83
2021/03/25 00:36:22;;;;;;;2.42;0.47;;;32.00;61.90;;;;;;5068907;28;20451;-82
2021/03/25 00:38:50;;;;;;;1.00;0.25;;;32.20;62.70;;;;;;5063307;28;20857;-82
2021/03/25 00:41:17;;;;;;;1.40;0.35;;;32.10;61.90;;;;;;5067019;28;20514;-82
2021/03/25 00:43:44;;;;;;;3.00;0.22;;;32.20;63.90;;;;;;5072210;28;20384;-84
2021/03/25 00:46:11;;;;;;;1.60;0.20;;;32.50;65.30;;;;;;5071283;28;20480;-81
2021/03/25 00:48:38;;;;;;;1.35;0.30;;;32.70;62.10;;;;;;5069612;28;20437;-82
2021/03/25 00:51:05;;;;;;;0.32;0.30;;;32.60;62.70;;;;;;5073115;28;20400;-81
2021/03/25 00:53:35;;;;;;;1.40;0.20;;;32.60;61.40;;;;;;5070195;28;20421;-83
2021/03/25 00:56:04;;;;;;;0.90;0.47;;;32.70;62.00;;;;;;5067236;28;20394;-83
2021/03/25 00:58:31;;;;;;;2.33;0.30;;;32.40;62.90;;;;;;5067999;28;20400;-82
2021/03/25 01:01:00;;;;;;;2.95;0.57;;;31.40;58.90;;;;;;5065286;28;20425;-82
2021/03/25 01:03:27;;;;;;;0.60;0.40;;;31.00;59.80;;;;;;5064799;28;20401;-81
2021/03/25 01:05:55;;;;;;;1.23;0.50;;;30.70;61.60;;;;;;5070504;28;20378;-81
2021/03/25 01:08:32;;;;;;;0.75;0.20;;;30.90;63.90;;;;;;5077747;28;20432;-82
2021/03/25 01:11:06;;;;;;;1.50;0.20;;;31.00;62.60;;;;;;5067908;28;20412;-80
2021/03/25 01:13:41;;;;;;;0.85;0.30;;;30.80;62.00;;;;;;5061335;28;20382;-81
2021/03/25 01:16:13;;;;;;;0.40;0.40;;;30.00;62.50;;;;;;5065880;28;20405;-81
2021/03/25 01:18:40;;;;;;;1.80;0.25;;;29.10;69.70;;;;;;5075973;28;20408;-80
2021/03/25 01:21:07;;;;;;;1.27;0.30;;;28.50;69.50;;;;;;5067952;28;20396;-82
2021/03/25 01:23:35;;;;;;;1.30;0.30;;;28.10;65.80;;;;;;5073610;28;20436;-82
2021/03/25 01:26:02;;;;;;;1.30;0.20;;;27.70;70.10;;;;;;5065397;28;21176;-81
2021/03/25 01:28:30;;;;;;;0.50;0.30;;;27.70;73.00;;;;;;5069113;28;20407;-81
2021/03/25 01:30:57;;;;;;;0.70;0.27;;;27.50;69.60;;;;;;5065814;28;20425;-80
2021/03/25 01:33:25;;;;;;;0.93;0.20;;;27.20;72.30;;;;;;5066427;28;20393;-81
2021/03/25 01:35:52;;;;;;;0.53;0.20;;;27.10;72.10;;;;;;5064373;28;20914;-82
2021/03/25 01:38:22;;;;;;;0.30;0.20;;;27.00;72.80;;;;;;5068696;28;20385;-82
2021/03/25 01:40:56;;;;;;;0.70;0.30;;;26.70;70.30;;;;;;5071702;28;20370;-82
2021/03/25 01:43:36;;;;;;;2.00;0.30;;;26.50;73.70;;;;;;5070561;28;20678;-81
2021/03/25 01:46:29;;;;;;;0.47;0.40;;;26.40;74.20;;;;;;5070640;28;20947;-81
2021/03/25 01:49:02;;;;;;;0.70;0.20;;;26.20;72.60;;;;;;5078006;28;20525;-81
2021/03/25 01:52:06;;;;;;;0.80;0.30;;;26.20;75.40;;;;;;5070686;28;20471;-81
2021/03/25 01:54:45;;;;;;;0.30;0.30;;;26.20;76.90;;;;;;5068888;28;20398;-82
2021/03/25 01:57:31;;;;;;;1.60;0.40;;;26.20;78.00;;;;;;5070421;28;20397;-81
2021/03/25 02:00:10;;;;;;;0.60;0.30;;;26.20;78.70;;;;;;5073716;28;20394;-80
2021/03/25 02:03:00;;;;;;;0.43;0.30;;;26.30;75.00;;;;;;5084084;28;20414;-81
2021/03/25 02:05:45;;;;;;;1.50;0.30;;;26.40;74.60;;;;;;5074964;28;20396;-83
2021/03/25 02:08:34;;;;;;;1.70;0.30;;;26.30;76.80;;;;;;5071521;28;20475;-81
2021/03/25 02:11:42;;;;;;;1.75;0.22;;;26.10;75.40;;;;;;5071829;28;20414;-82
2021/03/25 02:14:28;;;;;;;0.75;0.35;;;26.00;75.90;;;;;;5064714;28;20392;-81
2021/03/25 02:17:23;;;;;;;1.35;0.30;;;25.90;75.80;;;;;;5081738;28;20402;-81
2021/03/25 02:20:13;;;;;;;2.90;0.43;;;26.00;79.90;;;;;;5076912;28;20415;-82
2021/03/25 02:23:02;;;;;;;2.80;0.45;;;26.20;78.60;;;;;;5070169;28;20381;-82
2021/03/25 02:25:44;;;;;;;0.50;0.30;;;26.30;81.30;;;;;;5061552;28;20432;-84
2021/03/25 02:28:21;;;;;;;5.18;0.30;;;26.30;78.00;;;;;;5064636;28;20978;-81
2021/03/25 02:31:22;;;;;;;2.25;0.40;;;26.30;79.30;;;;;;5072216;28;20471;-82
2021/03/25 02:33:56;;;;;;;1.70;0.25;;;26.30;79.30;;;;;;5073588;28;20436;-80
2021/03/25 02:36:33;;;;;;;0.90;0.30;;;26.10;80.20;;;;;;5071155;28;20436;-83
2021/03/25 02:39:09;;;;;;;1.00;0.20;;;26.00;81.30;;;;;;5065139;28;20412;-81
2021/03/25 02:41:44;;;;;;;1.30;0.40;;;26.00;83.60;;;;;;5067912;28;20687;-82
2021/03/25 02:44:24;;;;;;;0.57;0.20;;;26.00;80.90;;;;;;5050271;28;20454;-83
2021/03/25 02:47:02;;;;;;;1.40;0.30;;;26.20;82.70;;;;;;5068505;28;20462;-83
2021/03/25 02:49:36;;;;;;;2.05;0.40;;;26.00;79.90;;;;;;5065928;28;20389;-80
2021/03/25 02:52:15;;;;;;;0.50;0.30;;;25.90;84.40;;;;;;5062161;28;20407;-80
2021/03/25 02:54:43;;;;;;;2.10;0.20;;;26.00;82.90;;;;;;5074528;28;20398;-83
2021/03/25 02:57:11;;;;;;;1.00;0.20;;;25.90;81.30;;;;;;5061752;28;20402;-80
2021/03/25 02:59:41;;;;;;;1.92;0.40;;;25.80;80.50;;;;;;5069850;28;20389;-83
2021/03/25 03:02:19;;;;;;;2.15;0.20;;;25.80;78.10;;;;;;5074047;28;20719;-80
2021/03/25 03:04:50;;;;;;;0.90;0.30;;;25.80;80.80;;;;;;5069157;28;20401;-79
2021/03/25 03:07:36;;;;;;;1.05;0.30;;;25.70;81.80;;;;;;5070055;28;20393;-80
2021/03/25 03:10:10;;;;;;;2.03;0.30;;;25.60;79.60;;;;;;5086126;28;20408;-79
2021/03/25 03:12:45;;;;;;;0.57;0.20;;;25.40;81.70;;;;;;5070995;28;20427;-80
2021/03/25 03:15:29;;;;;;;1.48;0.38;;;25.20;84.00;;;;;;5082287;28;20408;-80
2021/03/25 03:18:26;;;;;;;1.42;0.38;;;25.10;87.30;;;;;;5071333;28;20399;-79
2021/03/25 03:20:59;;;;;;;1.15;0.30;;;25.00;87.40;;;;;;5067768;28;20808;-80
2021/03/25 03:23:30;;;;;;;0.50;0.20;;;24.80;87.70;;;;;;5072230;28;20411;-79
2021/03/25 03:26:02;;;;;;;4.63;0.40;;;24.60;88.90;;;;;;5068503;28;20874;-80
2021/03/25 03:28:43;;;;;;;2.22;0.40;;;24.40;90.20;;;;;;5070097;28;20439;-81
2021/03/25 03:31:44;;;;;;;1.42;0.40;;;23.90;97.90;;;;;;5067850;28;20501;-80
2021/03/25 03:34:29;;;;;;;1.52;0.70;;;23.50;99.90;;;;;;5068116;28;20753;-79
2021/03/25 03:37:02;;;;;;;0.70;0.50;;;23.10;99.90;;;;;;5068974;28;20448;-79
2021/03/25 03:39:31;;;;;;;0.90;0.30;;;22.90;99.90;;;;;;5067543;28;20750;-79
2021/03/25 03:42:09;;;;;;;2.45;0.95;;;22.80;99.90;;;;;;5067328;28;20390;-79
2021/03/25 03:44:42;;;;;;;4.30;1.00;;;22.70;99.90;;;;;;5068718;28;20413;-80
2021/03/25 03:47:10;;;;;;;1.83;0.50;;;22.70;99.90;;;;;;5068708;28;20918;-80
2021/03/25 03:49:52;;;;;;;3.25;0.80;;;22.70;99.90;;;;;;5065022;28;20447;-80
2021/03/25 03:52:39;;;;;;;1.90;0.60;;;22.70;99.90;;;;;;5075117;28;20827;-79
2021/03/25 03:55:11;;;;;;;0.60;0.32;;;22.80;99.90;;;;;;5073760;28;21281;-79
2021/03/25 03:57:58;;;;;;;2.57;0.70;;;22.80;99.90;;;;;;5073630;28;20404;-79
2021/03/25 04:00:39;;;;;;;3.97;0.80;;;22.70;99.90;;;;;;5070630;28;20403;-80
2021/03/25 04:03:20;;;;;;;2.03;0.88;;;22.40;99.90;;;;;;5067098;28;20424;-79
2021/03/25 04:06:12;;;;;;;4.20;1.20;;;22.20;99.90;;;;;;5066211;28;20398;-81
2021/03/25 04:09:01;;;;;;;5.55;1.02;;;22.10;99.90;;;;;;5076906;28;20390;-81
2021/03/25 04:12:05;;;;;;;1.30;0.88;;;22.00;99.90;;;;;;5068447;28;20455;-80
2021/03/25 04:14:47;;;;;;;2.55;0.75;;;21.90;99.90;;;;;;5053511;28;20398;-81
2021/03/25 04:17:22;;;;;;;2.75;0.70;;;22.00;99.90;;;;;;5055787;28;20386;-81
2021/03/25 04:19:54;;;;;;;1.60;0.60;;;22.30;99.90;;;;;;5077763;28;20565;-81
2021/03/25 04:22:31;;;;;;;1.73;0.68;;;22.80;99.90;;;;;;5072134;28;20402;-81
2021/03/25 04:25:04;;;;;;;1.23;0.77;;;23.10;99.90;;;;;;5073107;28;20384;-80
2021/03/25 04:27:52;;;;;;;1.60;0.60;;;23.40;99.90;;;;;;5082197;28;20403;-81
2021/03/25 04:30:27;;;;;;;1.73;0.80;;;23.50;99.90;;;;;;5057507;28;20401;-81
2021/03/25 04:32:55;;;;;;;0.95;0.30;;;23.50;99.90;;;;;;5070000;28;20382;-81
2021/03/25 04:35:23;;;;;;;1.23;0.40;;;23.60;99.90;;;;;;5065058;28;20704;-80
2021/03/25 04:37:52;;;;;;;1.15;0.30;;;23.60;99.90;;;;;;5073266;28;20395;-80
2021/03/25 04:40:27;;;;;;;2.42;0.28;;;23.80;99.90;;;;;;5074386;28;20406;-81
2021/03/25 04:42:55;;;;;;;1.10;0.30;;;23.90;99.90;;;;;;5068207;28;20382;-80
2021/03/25 04:45:28;;;;;;;0.47;0.30;;;24.00;99.90;;;;;;5072047;28;20476;-81
2021/03/25 04:48:00;;;;;;;0.63;0.38;;;24.10;99.90;;;;;;5072148;28;20915;-81
2021/03/25 04:50:56;;;;;;;1.40;0.30;;;24.10;99.90;;;;;;5077290;28;20499;-80
2021/03/25 04:53:43;;;;;;;0.87;0.20;;;24.20;99.90;;;;;;5035621;28;20404;-78
2021/03/25 04:56:13;;;;;;;2.30;0.30;;;24.10;99.90;;;;;;5068442;28;20374;-79
2021/03/25 04:59:02;;;;;;;0.20;0.20;;;24.00;99.90;;;;;;5082199;28;20523;-79
2021/03/25 05:01:33;;;;;;;1.30;0.20;;;23.90;99.90;;;;;;5074149;28;20388;-80
2021/03/25 05:04:04;;;;;;;1.70;0.30;;;23.80;99.90;;;;;;5079243;28;20392;-80
2021/03/25 05:06:42;;;;;;;1.30;0.30;;;23.50;99.90;;;;;;5067957;28;20430;-79
2021/03/25 05:09:14;;;;;;;1.40;0.30;;;23.40;99.90;;;;;;5053830;28;20374;-79
2021/03/25 05:11:41;;;;;;;1.30;0.60;;;23.20;99.90;;;;;;5067109;28;20414;-80
2021/03/25 05:14:23;;;;;;;1.58;0.55;;;23.00;99.90;;;;;;5068606;28;20402;-79
2021/03/25 05:16:56;;;;;;;3.03;0.73;;;22.80;99.90;;;;;;5068514;28;20371;-79
2021/03/25 05:19:34;;;;;;;2.00;0.80;;;22.70;99.90;;;;;;5067850;28;20695;-79
2021/03/25 05:22:25;;;;;;;1.30;0.80;;;22.70;99.90;;;;;;5068302;28;20382;-79
2021/03/25 05:25:14;;;;;;;2.25;0.73;;;22.70;99.90;;;;;;5058473;28;20414;-79
2021/03/25 05:27:49;;;;;;;2.25;0.75;;;22.80;99.90;;;;;;5061317;28;20419;-79
2021/03/25 05:30:26;;;;;;;1.73;0.63;;;22.90;99.90;;;;;;5067480;28;20418;-78
2021/03/25 05:33:03;;;;;;;2.85;0.70;;;23.10;99.90;;;;;;5066999;28;20367;-78
2021/03/25 05:35:38;;;;;;;4.03;0.60;;;23.10;99.90;;;;;;5067487;28;20729;-78
2021/03/25 05:38:05;;;;;;;0.82;0.50;;;23.10;99.90;;;;;;5068054;28;20389;-78
2021/03/25 05:40:52;;;;;;;1.10;0.60;;;23.10;99.90;;;;;;5067222;28;20394;-78
2021/03/25 05:43:28;;;;;;;1.85;0.60;;;23.10;99.90;;;;;;5072808;28;20382;-80
2021/03/25 05:46:02;;;;;;;3.13;0.80;;;23.10;99.90;;;;;;5067678;28;20394;-79
2021/03/25 05:48:55;;;;;;;2.10;0.85;;;23.10;99.90;;;;;;5066188;28;20384;-79
2021/03/25 05:51:41;;;;;;;2.47;0.90;;;23.00;99.90;;;;;;5063669;28;20414;-79
2021/03/25 05:54:23;;;;;;;2.15;0.70;;;22.80;99.90;;;;;;5073323;28;20432;-81
2021/03/25 05:57:28;;;;;;;1.17;0.70;;;22.70;99.90;;;;;;5066030;28;20396;-81
2021/03/25 06:00:07;;;;;;;1.60;0.80;;;22.50;99.90;;;;;;5035703;28;20467;-81
2021/03/25 06:02:55;;;;;;;3.38;0.85;;;22.30;99.90;;;;;;5065126;28;20418;-81
2021/03/25 06:05:23;;;;;;;1.83;0.57;;;22.20;99.90;;;;;;5067779;28;20367;-80
2021/03/25 06:08:11;;;;;;;0.80;0.47;;;22.20;99.90;;;;;;5071621;28;20447;-80
2021/03/25 06:10:53;;;;;;;1.20;0.60;;;22.20;99.90;;;;;;5067455;28;20430;-80
2021/03/25 06:13:30;;;;;;;1.00;0.50;;;22.10;99.90;;;;;;5067559;28;20993;-81
2021/03/25 06:16:15;;;;;;;2.58;0.60;;;22.20;99.90;;;;;;5067449;28;20473;-83
2021/03/25 06:19:03;;;;;;;2.58;0.60;;;22.20;99.90;;;;;;5064006;28;20469;-81
2021/03/25 06:21:36;;;;;;;1.65;0.60;;;22.40;99.90;;;;;;5068301;28;20424;-83
2021/03/25 06:24:48;;;;;;;1.00;0.50;;;22.50;99.90;;;;;;5083648;28;20521;-81
2021/03/25 06:27:49;;;;;;;3.55;0.80;;;22.30;99.90;;;;;;5058486;28;20531;-83
2021/03/25 06:30:23;;;;;;;0.80;0.60;;;22.20;99.90;;;;;;5086967;28;20918;-84
2021/03/25 06:33:01;;;;;;;3.85;0.70;;;22.20;99.90;;;;;;5071027;28;20436;-83
2021/03/25 06:35:45;;;;;;;1.63;1.10;;;22.30;99.90;;;;;;5071140;28;20398;-82
2021/03/25 06:38:22;;;;;;;2.08;0.63;;;22.40;99.90;;;;;;5071878;28;20388;-82
2021/03/25 06:41:02;;;;;;;2.20;0.73;;;22.40;99.90;;;;;;5087756;28;20479;-83
2021/03/25 06:43:39;;;;;;;2.08;0.68;;;22.40;99.90;;;;;;5104357;27;21327;-83
2021/03/25 06:46:29;;;;;;;1.90;0.60;;;22.40;99.90;;;;;;5079710;28;20404;-84
2021/03/25 06:49:01;;;;;;;2.40;0.50;;;22.40;99.90;;;;;;5078034;28;20384;-81
2021/03/25 06:51:35;;;;;;;2.70;0.57;;;22.40;99.90;;;;;;5069395;28;20417;-81
2021/03/25 06:54:14;;;;;;;2.87;0.80;;;22.30;99.90;;;;;;5071077;28;20382;-82
2021/03/25 06:56:47;;;;;;;1.40;0.40;;;22.20;99.90;;;;;;5074609;28;20479;-82
2021/03/25 06:59:22;;;;;;;1.50;0.50;;;22.20;99.90;;;;;;5090329;28;20441;-81
2021/03/25 07:01:54;;;;;;;0.85;0.50;;;22.10;99.90;;;;;;5103919;27;20423;-82
2021/03/25 07:04:27;;;;;;;0.55;0.47;;;22.00;99.90;;;;;;5089422;28;20462;-82
2021/03/25 07:07:06;;;;;;;0.40;0.32;;;21.90;99.90;;;;;;5073842;28;20398;-82
2021/03/25 07:09:36;;;;;;;1.25;0.30;;;21.90;99.90;;;;;;5074181;28;20928;-82
2021/03/25 07:12:06;;;;;;;1.42;0.30;;;21.80;99.90;;;;;;5078182;28;20429;-80
2021/03/25 07:14:41;;;;;;;1.30;0.33;;;21.70;99.90;;;;;;5086861;28;20740;-81
2021/03/25 07:17:13;;;;;;;0.40;0.32;;;21.60;99.90;;;;;;5075461;28;20418;-81
2021/03/25 07:19:45;;;;;;;1.08;0.30;;;21.60;99.90;;;;;;5086752;28;20900;-82
2021/03/25 07:22:22;;;;;;;1.20;0.30;;;21.60;99.90;;;;;;5081638;28;20977;-82
2021/03/25 07:24:51;;;;;;;1.17;0.30;;;21.60;99.90;;;;;;5050935;28;20371;-82
2021/03/25 07:27:32;;;;;;;0.60;0.30;;;21.60;99.90;;;;;;5075097;28;20404;-82
2021/03/25 07:30:04;;;;;;;0.40;0.30;;;21.70;99.90;;;;;;5087777;28;20400;-80
2021/03/25 07:32:48;;;;;;;1.13;0.30;;;21.80;99.90;;;;;;5077118;28;20441;-83
2021/03/25 07:35:27;;;;;;;1.73;0.15;;;21.80;99.90;;;;;;5082026;28;20901;-81
2021/03/25 07:37:55;;;;;;;0.88;0.43;;;21.90;99.90;;;;;;5073972;27;20406;-81
2021/03/25 07:40:36;;;;;;;0.63;0.30;;;21.80;99.90;;;;;;5067508;28;20419;-82
2021/03/25 07:43:22;;;;;;;1.80;0.20;;;21.80;99.90;;;;;;5068579;28;20401;-81
2021/03/25 07:46:11;;;;;;;0.30;0.10;;;21.70;99.90;;;;;;5068554;28;20511;-80
2021/03/25 07:48:38;;;;;;;1.92;0.40;;;21.60;99.90;;;;;;5043400;28;20396;-80
2021/03/25 07:51:11;;;;;;;0.52;0.30;;;21.50;99.90;;;;;;5076340;28;20409;-81
2021/03/25 07:53:39;;;;;;;0.65;0.20;;;21.40;99.90;;;;;;5079472;28;20385;-82
2021/03/25 07:56:15;;;;;;;0.57;0.25;;;21.20;99.90;;;;;;5069526;28;20394;-84
2021/03/25 07:58:45;;;;;;;2.50;0.40;;;21.10;99.90;;;;;;5077595;28;20481;-83
2021/03/25 08:01:21;;;;;;;1.27;0.30;;;21.00;99.90;;;;;;5077383;28;20392;-83
2021/03/25 08:03:49;;;;;;;1.80;0.30;;;20.90;99.90;;;;;;5078730;28;20374;-83
2021/03/25 08:06:35;;;;;;;1.17;0.32;;;20.90;99.90;;;;;;5067582;28;22051;-82
2021/03/25 08:09:15;;;;;;;1.70;0.50;;;20.80;99.90;;;;;;5071786;28;20788;-81
2021/03/25 08:11:54;;;;;;;0.60;0.30;;;20.70;99.90;;;;;;5085552;28;20408;-82
2021/03/25 08:14:29;;;;;;;1.20;0.40;;;20.70;99.90;;;;;;5073187;28;20370;-81
2021/03/25 08:17:28;;;;;;;0.95;0.30;;;20.70;99.90;;;;;;5083474;28;20396;-80
2021/03/25 08:20:22;;;;;;;1.00;0.50;;;20.60;99.90;;;;;;5082666;28;20382;-81
2021/03/25 08:23:36;;;;;;;0.70;0.40;;;20.60;99.90;;;;;;5061583;28;20412;-81
2021/03/25 08:26:29;;;;;;;1.80;0.50;;;20.50;99.90;;;;;;5072180;28;20387;-81
2021/03/25 08:29:13;;;;;;;2.55;0.57;;;20.40;99.90;;;;;;5068142;28;20401;-81
2021/03/25 08:31:59;;;;;;;1.33;0.73;;;20.30;99.90;;;;;;5088377;28;20400;-81
2021/03/25 08:34:49;;;;;;;3.58;0.60;;;20.20;99.90;;;;;;5066862;28;20414;-80
2021/03/25 08:37:23;;;;;;;1.45;0.50;;;20.20;99.90;;;;;;5085373;28;20412;-81
2021/03/25 08:40:04;;;;;;;1.50;0.80;;;20.10;99.90;;;;;;5089884;28;20376;-81
2021/03/25 08:42:37;;;;;;;1.10;0.60;;;20.00;99.90;;;;;;5066164;28;20387;-80
2021/03/25 08:45:10;;;;;;;1.40;0.50;;;20.00;99.90;;;;;;5067469;28;20397;-80
2021/03/25 08:47:36;;;;;;;0.80;0.60;;;19.90;99.90;;;;;;5072376;28;20402;-81
2021/03/25 08:50:28;;;;;;;1.40;0.50;;;19.90;99.90;;;;;;5068491;28;20414;-80
2021/03/25 08:52:58;;;;;;;1.50;0.60;;;19.80;99.90;;;;;;5055521;28;20394;-81
2021/03/25 08:55:35;;;;;;;2.00;0.50;;;19.80;99.90;;;;;;5068492;28;20461;-81
2021/03/25 08:58:24;;;;;;;0.90;0.50;;;19.70;99.90;;;;;;5075123;28;20388;-81
2021/03/25 09:00:56;;;;;;;0.68;0.50;;;19.60;99.90;;;;;;5089468;28;20365;-81
2021/03/25 09:03:41;;;;;;;0.80;0.40;;;19.50;99.90;;;;;;5066421;28;20803;-81
2021/03/25 09:06:25;;;;;;;1.85;0.50;;;19.40;99.90;;;;;;5070592;28;20876;-81
2021/03/25 09:09:19;;;;;;;2.00;0.60;;;19.40;99.90;;;;;;5069039;28;20405;-81
2021/03/25 09:11:46;;;;;;;2.07;0.50;;;19.40;99.90;;;;;;5074007;28;20414;-81
2021/03/25 09:14:21;;;;;;;1.20;0.50;;;19.30;99.90;;;;;;5068881;28;20427;-81
2021/03/25 09:16:49;;;;;;;5.10;0.60;;;19.30;99.90;;;;;;5068326;28;20374;-81
2021/03/25 09:19:29;;;;;;;0.60;0.30;;;19.30;99.90;;;;;;5082387;28;20884;-82
2021/03/25 09:21:58;;;;;;;2.55;0.35;;;19.30;99.90;;;;;;5068975;28;20421;-82
2021/03/25 09:24:25;;;;;;;0.60;0.30;;;19.30;99.90;;;;;;5065754;28;20390;-82
2021/03/25 09:26:56;;;;;;;0.70;0.40;;;19.30;99.90;;;;;;5068724;28;20451;-82
2021/03/25 09:29:26;;;;;;;1.52;0.30;;;19.30;99.90;;;;;;5067967;28;20394;-82
2021/03/25 09:31:56;;;;;;;0.30;0.20;;;19.20;99.90;;;;;;5068539;28;20432;-81
2021/03/25 09:34:26;;;;;;;1.00;0.50;;;19.30;99.90;;;;;;5069225;28;20374;-83
2021/03/25 09:37:24;;;;;;;1.00;0.32;;;19.30;99.90;;;;;;5066385;28;20398;-82
2021/03/25 09:40:27;;;;;;;1.15;0.30;;;19.20;99.90;;;;;;5079259;28;20947;-82
2021/03/25 09:43:28;;;;;;;0.75;0.38;;;19.20;99.90;;;;;;5072886;28;20481;-81
2021/03/25 09:45:56;;;;;;;0.80;0.30;;;19.10;99.90;;;;;;5083563;28;20384;-84
2021/03/25 09:48:28;;;;;;;0.68;0.43;;;19.00;99.90;;;;;;5067257;28;20386;-82
2021/03/25 09:51:06;;;;;;;2.53;0.40;;;19.00;99.90;;;;;;5065422;28;20405;-83
2021/03/25 09:53:49;;;;;;;0.80;0.30;;;19.00;99.90;;;;;;5063760;28;20385;-81
2021/03/25 09:56:29;;;;;;;0.45;0.20;;;19.10;99.90;;;;;;5067625;28;20376;-81
2021/03/25 09:59:04;;;;;;;2.72;0.40;;;19.10;99.90;;;;;;5067945;28;21156;-83
2021/03/25 10:01:54;;;;;;;0.30;0.27;;;19.10;99.90;;;;;;5081125;28;20490;-81
2021/03/25 10:04:25;;;;;;;1.20;0.43;;;19.20;99.90;;;;;;5089452;28;20923;-81
2021/03/25 10:07:13;;;;;;;1.33;0.38;;;19.10;99.90;;;;;;5069826;28;20405;-81
2021/03/25 10:09:58;;;;;;;0.45;0.20;;;19.20;99.90;;;;;;5072577;28;20415;-82
2021/03/25 10:12:47;;;;;;;0.70;0.40;;;19.10;99.90;;;;;;5070808;28;20388;-82
2021/03/25 10:15:32;;;;;;;0.90;0.32;;;19.00;99.90;;;;;;5077488;28;21892;-82
2021/03/25 10:18:03;;;;;;;2.60;0.30;;;19.00;99.90;;;;;;5072201;28;20475;-81
2021/03/25 10:20:59;;;;;;;2.55;0.30;;;18.90;99.90;;;;;;5087058;28;20812;-82
2021/03/25 10:23:29;;;;;;;0.80;0.20;;;18.90;99.90;;;;;;5082817;28;20412;-82
2021/03/25 10:26:05;;;;;;;1.80;0.40;;;18.90;99.90;;;;;;5069278;28;20948;-81
2021/03/25 10:28:45;;;;;;;1.07;0.20;;;18.90;99.90;;;;;;5082232;28;20428;-81
2021/03/25 10:31:22;;;;;;;1.10;0.30;;;18.80;99.90;;;;;;5071776;28;20416;-82
2021/03/25 10:33:54;;;;;;;0.82;0.30;;;18.80;99.90;;;;;;5068106;28;20459;-82
2021/03/25 10:36:33;;;;;;;2.00;0.40;;;18.80;99.90;;;;;;5064223;28;20416;-82
2021/03/25 10:39:02;;;;;;;2.55;0.40;;;18.70;99.90;;;;;;5053610;28;20474;-81
2021/03/25 10:41:37;;;;;;;0.45;0.25;;;18.70;99.90;;;;;;5057690;28;20386;-81
2021/03/25 10:44:29;;;;;;;0.30;0.30;;;18.60;99.90;;;;;;5046658;28;20379;-82
2021/03/25 10:46:59;;;;;;;1.10;0.40;;;18.60;99.90;;;;;;5070930;28;20378;-83
2021/03/25 10:49:30;;;;;;;1.23;0.30;;;18.50;99.90;;;;;;5052569;28;20486;-82
2021/03/25 10:51:57;;;;;;;0.90;0.40;;;18.50;99.90;;;;;;5057384;28;20461;-82
2021/03/25 10:54:38;;;;;;;1.08;0.50;;;18.40;99.90;;;;;;5069156;28;20405;-82
2021/03/25 10:57:14;;;;;;;1.05;0.30;;;18.40;99.90;;;;;;5051094;28;20390;-83
2021/03/25 10:59:55;;;;;;;0.60;0.40;;;18.40;99.90;;;;;;5060773;28;20391;-83
2021/03/25 11:02:26;;;;;;;1.05;0.40;;;18.20;99.90;;;;;;5050811;28;22685;-84
2021/03/25 11:05:17;;;;;;;0.50;0.40;;;18.20;99.90;;;;;;5054831;28;20439;-82
2021/03/25 11:07:55;;;;;;;2.15;0.55;;;18.10;99.90;;;;;;5057202;28;20472;-83
2021/03/25 11:10:34;;;;;;;0.80;0.50;;;18.10;99.90;;;;;;5058170;28;20435;-83
2021/03/25 11:13:12;;;;;;;0.82;0.40;;;18.00;99.90;;;;;;5061007;28;20428;-82
2021/03/25 11:15:40;;;;;;;2.33;0.47;;;18.00;99.90;;;;;;5054555;28;20457;-83
2021/03/25 11:18:20;;;;;;;1.60;0.60;;;18.00;99.90;;;;;;5051162;28;20368;-83
2021/03/25 11:20:48;;;;;;;1.10;0.40;;;17.90;99.90;;;;;;5050852;28;20407;-83
2021/03/25 11:23:18;;;;;;;1.02;0.45;;;17.80;99.90;;;;;;5063125;28;20404;-83
2021/03/25 11:25:45;;;;;;;1.50;0.52;;;17.80;99.90;;;;;;5062550;28;20374;-83
2021/03/25 11:28:16;;;;;;;1.17;0.52;;;17.80;99.90;;;;;;5049271;28;20431;-84
2021/03/25 11:30:46;;;;;;;1.10;0.40;;;17.70;99.90;;;;;;5050711;28;20396;-84
2021/03/25 11:33:38;;;;;;;1.70;0.40;;;17.70;99.90;;;;;;5055818;28;20417;-83
2021/03/25 11:36:05;;;;;;;0.95;0.40;;;17.60;99.90;;;;;;5064195;28;20395;-83
2021/03/25 11:38:43;;;;;;;1.00;0.30;;;17.60;99.90;;;;;;5068534;28;20425;-83
2021/03/25 11:41:31;;;;;;;3.13;0.52;;;17.50;99.90;;;;;;5074731;28;20428;-83
2021/03/25 11:44:01;;;;;;;0.43;0.40;;;17.50;99.90;;;;;;5069410;28;20435;-83
2021/03/25 11:46:34;;;;;;;3.28;0.38;;;17.50;99.90;;;;;;5058460;28;20382;-83
2021/03/25 11:49:03;;;;;;;1.20;0.50;;;17.40;99.90;;;;;;5069072;28;20963;-82
2021/03/25 11:51:31;;;;;;;2.40;0.55;;;17.40;99.90;;;;;;5069621;28;20413;-83
2021/03/25 11:53:59;;;;;;;1.17;0.50;;;17.40;99.90;;;;;;5068279;28;20382;-83
2021/03/25 11:56:46;;;;;;;2.10;0.55;;;17.30;99.90;;;;;;5078557;28;20425;-82
2021/03/25 11:59:19;;;;;;;1.05;0.60;;;17.20;99.90;;;;;;5078209;28;20399;-82
2021/03/25 12:01:47;;;;;;;2.90;0.80;;;17.30;99.90;;;;;;5076183;28;20390;-83
2021/03/25 12:04:20;;;;;;;2.33;0.60;;;17.20;99.90;;;;;;5088173;28;20395;-82
2021/03/25 12:07:07;;;;;;;1.02;0.60;;;17.20;99.90;;;;;;5081189;28;20396;-83
2021/03/25 12:09:35;;;;;;;0.98;0.60;;;17.10;99.90;;;;;;5076948;28;20386;-83
2021/03/25 12:12:02;;;;;;;1.85;0.52;;;17.10;99.90;;;;;;5073622;28;20413;-83
2021/03/25 12:14:29;;;;;;;1.00;0.45;;;17.10;99.90;;;;;;5070899;28;20460;-83
2021/03/25 12:17:01;;;;;;;1.95;0.73;;;17.10;99.90;;;;;;5073472;28;20410;-83
2021/03/25 12:19:33;;;;;;;0.95;0.57;;;17.00;99.90;;;;;;5074144;28;20386;-82
2021/03/25 12:22:00;;;;;;;1.85;0.70;;;17.00;99.90;;;;;;5079786;28;20404;-82
2021/03/25 12:24:27;;;;;;;1.00;0.55;;;17.00;99.90;;;;;;5076779;28;20403;-83
2021/03/25 12:26:54;;;;;;;1.50;0.57;;;17.00;99.90;;;;;;5082210;28;20400;-83
2021/03/25 12:29:21;;;;;;;1.60;0.50;;;17.00;99.90;;;;;;5079874;28;20393;-83
2021/03/25 12:31:49;;;;;;;1.80;0.60;;;16.90;99.90;;;;;;5083216;28;20556;-81
2021/03/25 12:34:16;;;;;;;1.02;0.40;;;16.90;99.90;;;;;;5089817;28;20400;-82
2021/03/25 12:36:43;;;;;;;2.80;0.50;;;16.90;99.90;;;;;;5075953;28;20809;-81
2021/03/25 12:39:10;;;;;;;1.30;0.50;;;16.90;99.90;;;;;;5088353;28;20388;-80
2021/03/25 12:41:45;;;;;;;2.50;0.50;;;16.90;99.90;;;;;;5081196;28;20381;-82
2021/03/25 12:44:14;;;;;;;2.20;0.40;;;16.90;99.90;;;;;;5082856;28;20393;-82
2021/03/25 12:46:42;;;;;;;1.30;0.40;;;16.80;99.90;;;;;;5082455;28;20394;-81
2021/03/25 12:49:09;;;;;;;1.55;0.60;;;16.80;99.90;;;;;;5079188;28;20387;-82
2021/03/25 12:51:37;;;;;;;0.70;0.38;;;16.80;99.90;;;;;;5083649;28;20417;-81
2021/03/25 12:54:04;;;;;;;1.25;0.40;;;16.80;99.90;;;;;;5083609;28;20385;-82
2021/03/25 12:56:34;;;;;;;3.05;0.60;;;16.80;99.90;;;;;;5083101;28;20396;-82
2021/03/25 12:59:04;;;;;;;1.95;0.50;;;16.80;99.90;;;;;;5076767;28;20390;-82
2021/03/25 13:01:33;;;;;;;0.75;0.30;;;16.80;99.90;;;;;;5082528;28;20401;-82
2021/03/25 13:04:01;;;;;;;0.60;0.40;;;16.80;99.90;;;;;;5080688;28;20500;-81
2021/03/25 13:06:28;;;;;;;1.38;0.50;;;16.80;99.90;;;;;;5067921;28;20872;-81
2021/03/25 13:08:55;;;;;;;3.45;0.70;;;16.70;99.90;;;;;;5079410;28;20417;-82
2021/03/25 13:11:26;;;;;;;0.73;0.53;;;16.70;99.90;;;;;;5083238;28;20411;-81
2021/03/25 13:13:54;;;;;;;1.35;0.50;;;16.70;99.90;;;;;;5084123;28;20388;-82
2021/03/25 13:16:21;;;;;;;1.50;0.50;;;16.70;99.90;;;;;;5068979;28;20741;-82
2021/03/25 13:18:48;;;;;;;2.88;0.57;;;16.70;99.90;;;;;;5067945;28;20397;-82
2021/03/25 13:21:16;;;;;;;0.50;0.50;;;16.60;99.90;;;;;;5083410;28;20444;-82
2021/03/25 13:23:47;;;;;;;1.00;0.40;;;16.60;99.90;;;;;;5109829;27;20917;-82
2021/03/25 13:26:14;;;;;;;1.42;0.50;;;16.60;99.90;;;;;;5085282;28;20479;-82
2021/03/25 13:28:42;;;;;;;1.60;0.60;;;16.60;99.90;;;;;;5084193;28;20397;-82
2021/03/25 13:31:12;;;;;;;2.80;0.50;;;16.60;99.90;;;;;;5075154;28;20404;-82
2021/03/25 13:33:39;;;;;;;0.95;0.50;;;16.60;99.90;;;;;;5075988;28;20386;-82
2021/03/25 13:36:07;;;;;;;0.32;0.30;;;16.60;99.90;;;;;;5084051;28;20443;-82